createdAt,value
2017-11-26T00:01:01.295Z,74.51
2017-11-26T00:03:27.701Z,74.62
2017-11-26T00:05:54.057Z,74.66
2017-11-26T00:08:20.447Z,74.51
2017-11-26T00:10:46.868Z,74.38
2017-11-26T00:13:13.205Z,74.29
2017-11-26T00:15:39.598Z,74.22
2017-11-26T00:18:06.091Z,74.31
2017-11-26T00:20:32.471Z,74.33
2017-11-26T00:22:58.830Z,74.26
2017-11-26T00:25:25.203Z,74.16
2017-11-26T00:27:51.549Z,74.29
2017-11-26T00:30:17.950Z,74.37
2017-11-26T00:32:44.390Z,74.49
2017-11-26T00:35:10.759Z,74.53
2017-11-26T00:37:37.390Z,74.16
2017-11-26T00:40:03.801Z,74.32
2017-11-26T00:42:30.133Z,73.95
2017-11-26T00:44:56.498Z,74.03
2017-11-26T00:47:22.883Z,74.15
2017-11-26T00:49:49.211Z,74.16
2017-11-26T00:52:15.543Z,74.16
2017-11-26T00:54:41.902Z,74.20
2017-11-26T00:57:08.241Z,74.19
2017-11-26T00:59:34.638Z,74.24
2017-11-26T01:02:01.001Z,74.34
2017-11-26T01:04:27.337Z,74.36
2017-11-26T01:06:53.718Z,74.44
2017-11-26T01:09:20.094Z,74.45
2017-11-26T01:11:46.435Z,74.35
2017-11-26T01:14:12.777Z,74.44
2017-11-26T01:16:39.261Z,74.44
2017-11-26T01:19:05.592Z,74.53
2017-11-26T01:21:31.908Z,74.57
2017-11-26T01:23:58.261Z,74.44
2017-11-26T01:26:24.613Z,74.38
2017-11-26T01:28:51.025Z,74.49
2017-11-26T01:31:17.494Z,74.53
2017-11-26T01:33:43.857Z,74.57
2017-11-26T01:36:10.258Z,74.72
2017-11-26T01:38:36.789Z,74.45
2017-11-26T01:41:03.154Z,74.44
2017-11-26T01:43:29.499Z,74.28
2017-11-26T01:45:55.882Z,74.29
2017-11-26T01:48:22.290Z,74.56
2017-11-26T01:50:48.709Z,74.55
2017-11-26T01:53:15.120Z,74.72
2017-11-26T01:55:41.517Z,74.85
2017-11-26T01:58:07.910Z,74.79
2017-11-26T02:00:34.414Z,74.66
2017-11-26T02:03:00.829Z,74.73
2017-11-26T02:05:27.223Z,74.73
2017-11-26T02:07:53.639Z,74.72
2017-11-26T02:10:20.035Z,74.75
2017-11-26T02:12:46.410Z,74.91
2017-11-26T02:15:12.802Z,75.01
2017-11-26T02:17:39.162Z,74.62
2017-11-26T02:20:05.555Z,74.29
2017-11-26T02:22:31.997Z,74.52
2017-11-26T02:24:58.422Z,74.73
2017-11-26T02:27:24.857Z,74.52
2017-11-26T02:29:51.313Z,74.62
2017-11-26T02:45:47.125Z,74.80
2017-11-26T02:48:13.608Z,74.75
2017-11-26T02:50:40.016Z,75.06
2017-11-26T02:53:06.490Z,74.85
2017-11-26T02:55:32.923Z,74.57
2017-11-26T02:57:59.345Z,74.47
2017-11-26T03:00:25.829Z,74.50
2017-11-26T03:02:52.209Z,74.44
2017-11-26T03:05:18.550Z,74.53
2017-11-26T03:07:44.981Z,74.36
2017-11-26T03:10:11.349Z,74.04
2017-11-26T03:12:38.314Z,73.52
2017-11-26T03:15:04.779Z,73.73
2017-11-26T03:17:31.215Z,73.67
2017-11-26T03:19:57.597Z,73.63
2017-11-26T03:22:23.973Z,73.74
2017-11-26T03:24:50.340Z,73.65
2017-11-26T03:27:16.730Z,73.78
2017-11-26T03:29:43.195Z,73.86
2017-11-26T03:32:09.582Z,74.03
2017-11-26T03:34:35.906Z,74.06
2017-11-26T03:37:02.325Z,73.95
2017-11-26T03:39:28.745Z,74.00
2017-11-26T03:41:55.165Z,73.85
2017-11-26T03:44:21.556Z,72.93
2017-11-26T03:46:47.928Z,73.07
2017-11-26T03:49:14.435Z,72.81
2017-11-26T03:51:40.849Z,72.96
2017-11-26T03:54:07.258Z,73.07
2017-11-26T03:56:34.594Z,72.88
2017-11-26T03:59:01.036Z,72.94
2017-11-26T04:01:27.454Z,72.78
2017-11-26T04:03:53.798Z,73.07
2017-11-26T04:06:20.201Z,73.09
2017-11-26T04:08:46.583Z,73.40
2017-11-26T04:11:12.917Z,73.54
2017-11-26T04:13:39.331Z,73.82
2017-11-26T04:16:05.741Z,73.72
2017-11-26T04:18:32.178Z,73.73
2017-11-26T04:20:58.593Z,73.81
2017-11-26T04:23:24.931Z,74.14
2017-11-26T04:25:51.346Z,74.09
2017-11-26T04:28:17.742Z,74.04
2017-11-26T04:30:44.271Z,73.92
2017-11-26T04:33:10.669Z,73.91
2017-11-26T04:35:37.085Z,73.90
2017-11-26T04:38:03.473Z,73.80
2017-11-26T04:40:29.930Z,73.57
2017-11-26T04:42:56.334Z,73.56
2017-11-26T04:45:22.696Z,72.69
2017-11-26T04:47:49.074Z,72.76
2017-11-26T04:50:15.554Z,72.82
2017-11-26T04:52:41.913Z,72.45
2017-11-26T04:55:08.303Z,72.79
2017-11-26T04:57:34.754Z,72.71
2017-11-26T05:00:01.187Z,72.99
2017-11-26T05:02:27.597Z,73.18
2017-11-26T05:04:54.069Z,73.23
2017-11-26T05:07:20.473Z,73.05
2017-11-26T05:09:46.854Z,73.42
2017-11-26T05:12:13.258Z,73.48
2017-11-26T05:14:39.647Z,73.39
2017-11-26T05:17:05.998Z,73.12
2017-11-26T05:19:32.449Z,72.71
2017-11-26T05:21:58.831Z,72.60
2017-11-26T05:24:25.197Z,72.69
2017-11-26T05:26:51.581Z,72.84
2017-11-26T05:29:17.957Z,72.73
2017-11-26T05:31:44.325Z,72.62
2017-11-26T05:34:10.726Z,72.28
2017-11-26T05:36:37.077Z,72.13
2017-11-26T05:39:03.537Z,72.05
2017-11-26T05:41:29.958Z,71.96
2017-11-26T05:43:56.329Z,71.94
2017-11-26T05:46:22.725Z,71.72
2017-11-26T05:48:49.188Z,72.04
2017-11-26T05:51:15.599Z,72.15
2017-11-26T05:53:41.985Z,71.77
2017-11-26T05:56:08.401Z,71.56
2017-11-26T05:58:34.745Z,71.50
2017-11-26T06:01:01.134Z,71.08
2017-11-26T06:03:27.555Z,71.02
2017-11-26T06:05:53.915Z,71.13
2017-11-26T06:08:20.322Z,70.99
2017-11-26T06:10:46.762Z,71.19
2017-11-26T06:13:13.161Z,71.29
2017-11-26T06:15:39.525Z,71.29
2017-11-26T06:18:05.942Z,71.50
2017-11-26T06:20:32.331Z,71.46
2017-11-26T06:22:58.686Z,71.00
2017-11-26T06:25:25.097Z,71.21
2017-11-26T06:27:51.469Z,71.27
2017-11-26T06:30:17.858Z,70.75
2017-11-26T06:32:44.261Z,70.47
2017-11-26T06:35:10.630Z,70.49
2017-11-26T06:37:37.061Z,70.69
2017-11-26T06:40:03.502Z,70.76
2017-11-26T06:42:29.875Z,70.51
2017-11-26T06:44:56.251Z,70.57
2017-11-26T06:47:22.719Z,70.67
2017-11-26T06:49:49.077Z,70.73
2017-11-26T06:52:15.719Z,70.34
2017-11-26T06:54:42.180Z,70.68
2017-11-26T06:57:08.576Z,70.80
2017-11-26T06:59:34.945Z,70.64
2017-11-26T07:02:01.431Z,70.36
2017-11-26T07:04:27.833Z,69.80
2017-11-26T07:06:55.271Z,69.67
2017-11-26T07:09:21.663Z,69.85
2017-11-26T07:11:48.177Z,69.96
2017-11-26T07:14:14.557Z,70.32
2017-11-26T07:16:40.970Z,70.34
2017-11-26T07:19:07.362Z,70.46
2017-11-26T07:21:33.739Z,69.61
2017-11-26T07:24:00.182Z,69.70
2017-11-26T07:26:26.566Z,69.38
2017-11-26T07:28:52.946Z,69.77
2017-11-26T07:31:19.346Z,70.24
2017-11-26T07:33:45.688Z,69.97
2017-11-26T07:36:12.190Z,69.45
2017-11-26T07:38:38.571Z,69.00
2017-11-26T07:41:04.945Z,68.83
2017-11-26T07:43:31.480Z,68.42
2017-11-26T07:45:57.921Z,68.42
2017-11-26T07:48:24.261Z,68.73
2017-11-26T07:50:50.607Z,69.03
2017-11-26T07:53:17.139Z,68.99
2017-11-26T07:55:43.469Z,69.08
2017-11-26T07:58:09.793Z,69.56
2017-11-26T08:00:36.258Z,69.74
2017-11-26T08:03:02.657Z,69.65
2017-11-26T08:05:29.029Z,69.71
2017-11-26T08:07:55.449Z,69.56
2017-11-26T08:10:21.815Z,70.33
2017-11-26T08:12:48.169Z,70.80
2017-11-26T08:15:14.556Z,70.39
2017-11-26T08:17:41.111Z,70.82
2017-11-26T08:20:07.459Z,70.37
2017-11-26T08:22:33.819Z,69.92
2017-11-26T08:25:00.254Z,69.45
2017-11-26T08:27:26.593Z,69.53
2017-11-26T08:29:52.977Z,69.30
2017-11-26T08:32:19.657Z,69.87
2017-11-26T08:34:45.990Z,69.46
2017-11-26T08:37:12.425Z,69.93
2017-11-26T08:39:38.856Z,69.98
2017-11-26T08:42:05.222Z,70.24
2017-11-26T08:44:31.638Z,70.24
2017-11-26T08:46:58.022Z,70.78
2017-11-26T08:49:24.526Z,69.78
2017-11-26T08:51:50.969Z,69.51
2017-11-26T08:54:17.369Z,68.97
2017-11-26T08:56:43.740Z,69.95
2017-11-26T08:59:10.178Z,69.94
2017-11-26T09:01:36.566Z,69.57
2017-11-26T09:04:02.984Z,70.11
2017-11-26T09:06:30.182Z,69.96
2017-11-26T09:08:58.393Z,70.46
2017-11-26T09:11:24.765Z,70.25
2017-11-26T09:13:51.176Z,70.77
2017-11-26T09:16:17.541Z,71.08
2017-11-26T09:18:43.917Z,72.86
2017-11-26T09:21:10.328Z,72.18
2017-11-26T09:23:36.679Z,71.93
2017-11-26T09:26:03.016Z,71.36
2017-11-26T09:28:29.441Z,71.59
2017-11-26T09:30:55.776Z,71.65
2017-11-26T09:33:22.127Z,71.57
2017-11-26T09:35:48.480Z,71.16
2017-11-26T09:38:14.805Z,71.36
2017-11-26T09:40:41.197Z,72.05
2017-11-26T09:43:07.758Z,72.13
2017-11-26T09:45:34.166Z,71.90
2017-11-26T09:48:00.537Z,71.75
2017-11-26T09:50:26.933Z,71.88
2017-11-26T09:52:53.291Z,71.78
2017-11-26T09:55:19.617Z,72.75
2017-11-26T09:57:45.985Z,73.50
2017-11-26T10:00:12.349Z,73.22
2017-11-26T10:02:38.749Z,72.10
2017-11-26T10:05:05.125Z,72.01
2017-11-26T10:07:31.478Z,71.72
2017-11-26T10:09:57.810Z,71.32
2017-11-26T10:12:24.190Z,71.23
2017-11-26T10:14:50.515Z,71.37
2017-11-26T10:17:16.840Z,71.33
2017-11-26T10:19:43.337Z,72.79
2017-11-26T10:22:11.673Z,73.78
2017-11-26T10:24:38.033Z,73.15
2017-11-26T10:27:04.480Z,72.43
2017-11-26T10:29:30.858Z,72.26
2017-11-26T10:31:57.243Z,72.19
2017-11-26T10:34:23.640Z,72.17
2017-11-26T10:36:50.004Z,71.76
2017-11-26T10:39:16.360Z,71.55
2017-11-26T10:41:42.743Z,71.33
2017-11-26T10:44:09.161Z,71.54
2017-11-26T10:46:35.616Z,71.53
2017-11-26T10:49:02.101Z,71.45
2017-11-26T10:51:28.568Z,71.03
2017-11-26T10:53:55.022Z,70.80
2017-11-26T10:56:21.452Z,70.63
2017-11-26T10:58:47.885Z,70.68
2017-11-26T11:01:14.318Z,71.11
2017-11-26T11:03:40.880Z,71.39
2017-11-26T11:06:07.289Z,71.50
2017-11-26T11:08:33.716Z,71.45
2017-11-26T11:11:00.156Z,70.97
2017-11-26T11:13:26.572Z,70.86
2017-11-26T11:15:52.980Z,70.53
2017-11-26T11:18:19.401Z,71.03
2017-11-26T11:20:45.869Z,71.04
2017-11-26T11:23:12.265Z,71.10
2017-11-26T11:25:38.681Z,71.25
2017-11-26T11:28:05.294Z,71.91
2017-11-26T11:30:31.690Z,71.56
2017-11-26T11:32:58.156Z,71.76
2017-11-26T11:35:24.513Z,71.79
2017-11-26T11:37:50.845Z,71.48
2017-11-26T11:40:17.264Z,71.09
2017-11-26T11:42:43.633Z,71.20
2017-11-26T11:45:10.039Z,70.89
2017-11-26T11:47:36.423Z,70.91
2017-11-26T11:50:02.785Z,71.02
2017-11-26T11:52:29.353Z,71.08
2017-11-26T11:54:55.861Z,70.95
2017-11-26T11:57:22.283Z,70.85
2017-11-26T11:59:48.851Z,70.77
2017-11-26T12:02:15.345Z,70.60
2017-11-26T12:04:41.785Z,70.53
2017-11-26T12:07:08.181Z,70.34
2017-11-26T12:09:34.630Z,70.71
2017-11-26T12:12:01.046Z,70.61
2017-11-26T12:14:27.485Z,70.83
2017-11-26T12:16:53.987Z,69.84
2017-11-26T12:19:20.516Z,69.97
2017-11-26T12:21:47.024Z,70.06
2017-11-26T12:24:13.538Z,70.41
2017-11-26T12:26:40.001Z,70.25
2017-11-26T12:29:06.523Z,70.54
2017-11-26T12:31:33.066Z,70.61
2017-11-26T12:33:59.573Z,71.00
2017-11-26T12:36:26.243Z,71.21
2017-11-26T12:38:52.722Z,71.22
2017-11-26T12:41:19.169Z,70.55
2017-11-26T12:43:45.718Z,70.25
2017-11-26T12:46:12.306Z,69.68
2017-11-26T12:48:38.842Z,70.05
2017-11-26T12:51:05.302Z,69.99
2017-11-26T12:53:31.789Z,70.09
2017-11-26T12:55:58.210Z,70.59
2017-11-26T12:58:24.659Z,70.24
2017-11-26T13:00:51.149Z,70.27
2017-11-26T13:03:17.652Z,70.32
2017-11-26T13:05:44.182Z,70.16
2017-11-26T13:08:10.715Z,70.50
2017-11-26T13:10:37.332Z,70.52
2017-11-26T13:13:03.798Z,70.15
2017-11-26T13:15:30.408Z,70.61
2017-11-26T13:17:56.946Z,71.20
2017-11-26T13:20:23.462Z,71.51
2017-11-26T13:28:57.685Z,70.95
2017-11-26T13:31:24.191Z,71.28
2017-11-26T13:33:50.764Z,71.10
2017-11-26T13:36:17.261Z,71.29
2017-11-26T13:38:43.798Z,71.62
2017-11-26T13:41:10.263Z,71.97
2017-11-26T13:43:36.946Z,72.00
2017-11-26T13:46:03.390Z,71.82
2017-11-26T13:48:29.955Z,72.22
2017-11-26T13:50:56.544Z,71.80
2017-11-26T13:53:23.372Z,72.35
2017-11-26T13:55:49.862Z,72.46
2017-11-26T13:58:16.713Z,72.65
2017-11-26T14:00:43.272Z,72.72
2017-11-26T14:03:09.849Z,72.36
2017-11-26T14:05:36.620Z,72.71
2017-11-26T14:08:03.218Z,72.59
2017-11-26T14:10:30.003Z,72.55
2017-11-26T14:12:56.755Z,71.86
2017-11-26T14:15:23.372Z,72.43
2017-11-26T14:17:49.994Z,72.79
2017-11-26T14:20:16.858Z,72.99
2017-11-26T14:22:43.387Z,73.38
2017-11-26T14:25:09.838Z,73.63
2017-11-26T14:27:36.392Z,73.03
2017-11-26T14:30:02.869Z,72.42
2017-11-26T14:32:29.309Z,73.11
2017-11-26T14:34:55.933Z,73.41
2017-11-26T14:37:22.394Z,72.98
2017-11-26T14:39:48.867Z,72.26
2017-11-26T14:42:15.408Z,73.44
2017-11-26T14:44:41.866Z,73.76
2017-11-26T14:47:08.317Z,74.16
2017-11-26T14:49:34.811Z,74.50
2017-11-26T14:52:01.274Z,74.31
2017-11-26T14:54:27.722Z,74.56
2017-11-26T14:56:54.271Z,74.65
2017-11-26T14:59:20.726Z,74.08
2017-11-26T15:01:47.190Z,74.96
2017-11-26T15:04:13.702Z,74.83
2017-11-26T15:06:40.152Z,75.35
2017-11-26T15:09:06.807Z,75.57
2017-11-26T15:11:33.335Z,75.20
2017-11-26T15:13:59.862Z,74.78
2017-11-26T15:16:26.330Z,75.70
2017-11-26T15:18:52.943Z,73.78
2017-11-26T15:21:19.410Z,74.74
2017-11-26T15:23:45.834Z,75.38
2017-11-26T15:26:12.365Z,74.02
2017-11-26T15:28:38.811Z,75.97
2017-11-26T15:31:05.461Z,76.43
2017-11-26T15:33:32.160Z,76.82
2017-11-26T15:35:58.615Z,76.49
2017-11-26T15:38:25.469Z,76.55
2017-11-26T15:40:53.241Z,76.63
2017-11-26T15:43:19.719Z,77.18
2017-11-26T15:45:46.182Z,76.53
2017-11-26T15:48:12.681Z,77.32
2017-11-26T15:50:39.987Z,74.73
2017-11-26T15:53:06.463Z,76.95
2017-11-26T15:55:32.995Z,76.67
2017-11-26T15:57:59.626Z,77.31
2017-11-26T16:00:26.359Z,74.70
2017-11-26T16:02:52.868Z,76.41
2017-11-26T16:05:19.356Z,76.71
2017-11-26T16:07:45.823Z,76.06
2017-11-26T16:10:12.375Z,75.94
2017-11-26T16:12:38.873Z,74.72
2017-11-26T16:15:05.723Z,76.51
2017-11-26T16:17:32.217Z,76.96
2017-11-26T16:19:59.819Z,76.36
2017-11-26T16:22:29.093Z,77.57
2017-11-26T16:24:56.605Z,78.15
2017-11-26T16:27:25.958Z,78.50
2017-11-26T16:29:52.406Z,78.02
2017-11-26T16:32:19.026Z,76.04
2017-11-26T16:34:45.815Z,77.90
2017-11-26T16:37:12.272Z,77.85
2017-11-26T16:39:40.139Z,78.43
2017-11-26T16:42:07.835Z,77.02
2017-11-26T16:44:34.386Z,77.88
2017-11-26T16:47:00.906Z,78.32
2017-11-26T16:49:27.383Z,78.28
2017-11-26T16:51:54.972Z,78.21
2017-11-26T16:54:22.458Z,78.02
2017-11-26T16:56:48.986Z,77.97
2017-11-26T16:59:15.599Z,78.38
2017-11-26T17:01:42.066Z,78.04
2017-11-26T17:04:08.487Z,78.40
2017-11-26T17:06:35.104Z,77.21
2017-11-26T17:09:01.626Z,77.03
2017-11-26T17:11:28.150Z,77.88
2017-11-26T17:13:54.946Z,78.42
2017-11-26T17:16:22.065Z,78.58
2017-11-26T17:18:48.629Z,77.80
2017-11-26T17:21:15.099Z,77.95
2017-11-26T17:23:41.584Z,78.17
2017-11-26T17:26:08.033Z,74.60
2017-11-26T17:28:34.622Z,75.32
2017-11-26T17:31:01.158Z,76.56
2017-11-26T17:33:27.618Z,77.16
2017-11-26T17:35:54.074Z,77.69
2017-11-26T17:38:20.583Z,77.57
2017-11-26T17:40:47.049Z,76.48
2017-11-26T17:43:14.342Z,77.74
2017-11-26T17:45:40.907Z,78.06
2017-11-26T17:48:07.381Z,77.71
2017-11-26T17:50:33.855Z,76.35
2017-11-26T17:53:02.042Z,77.50
2017-11-26T17:55:28.491Z,77.65
2017-11-26T17:57:54.972Z,77.88
2017-11-26T18:00:25.309Z,78.05
2017-11-26T18:02:51.757Z,78.04
2017-11-26T18:05:18.151Z,77.83
2017-11-26T18:07:44.674Z,77.88
2017-11-26T18:10:11.099Z,74.79
2017-11-26T18:12:38.489Z,77.11
2017-11-26T18:15:05.003Z,76.86
2017-11-26T18:17:31.431Z,77.20
2017-11-26T18:19:58.730Z,74.34
2017-11-26T18:22:25.187Z,76.84
2017-11-26T18:24:51.574Z,77.36
2017-11-26T18:27:17.956Z,77.62
2017-11-26T18:29:44.645Z,77.69
2017-11-26T18:32:11.143Z,77.64
2017-11-26T18:34:39.202Z,77.78
2017-11-26T18:37:05.640Z,78.02
2017-11-26T18:39:32.012Z,78.43
2017-11-26T18:41:58.418Z,78.72
2017-11-26T18:44:25.835Z,78.52
2017-11-26T18:46:53.154Z,78.08
2017-11-26T18:49:19.571Z,78.28
2017-11-26T18:51:47.578Z,78.53
2017-11-26T18:54:14.081Z,78.65
2017-11-26T18:56:40.506Z,79.38
2017-11-26T18:59:06.885Z,78.54
2017-11-26T19:01:34.080Z,77.95
2017-11-26T19:04:00.878Z,78.65
2017-11-26T19:06:27.323Z,78.49
2017-11-26T19:08:54.335Z,78.03
2017-11-26T19:11:20.747Z,78.70
2017-11-26T19:13:47.352Z,77.00
2017-11-26T19:16:13.774Z,76.66
2017-11-26T19:18:40.173Z,76.87
2017-11-26T19:21:06.658Z,78.14
2017-11-26T19:23:33.064Z,76.39
2017-11-26T19:25:59.495Z,76.86
2017-11-26T19:28:25.927Z,75.90
2017-11-26T19:30:52.484Z,76.27
2017-11-26T19:33:19.229Z,77.50
2017-11-26T19:35:48.785Z,76.13
2017-11-26T19:38:15.306Z,77.71
2017-11-26T19:40:42.347Z,77.07
2017-11-26T19:43:08.805Z,77.90
2017-11-26T19:45:38.261Z,78.33
2017-11-26T19:48:04.737Z,78.67
2017-11-26T19:50:31.282Z,78.68
2017-11-26T19:52:57.690Z,78.69
2017-11-26T19:55:24.206Z,78.71
2017-11-26T19:57:51.594Z,78.42
2017-11-26T20:00:18.182Z,78.43
2017-11-26T20:02:44.602Z,78.89
2017-11-26T20:05:11.179Z,78.70
2017-11-26T20:07:37.746Z,78.81
2017-11-26T20:10:04.324Z,76.35
2017-11-26T20:12:30.910Z,78.33
2017-11-26T20:14:57.597Z,78.38
2017-11-26T20:17:24.063Z,77.58
2017-11-26T20:19:50.576Z,78.58
2017-11-26T20:22:16.977Z,78.40
2017-11-26T20:24:43.321Z,79.15
2017-11-26T20:27:09.710Z,77.91
2017-11-26T20:29:36.154Z,78.65
2017-11-26T20:32:02.668Z,78.57
2017-11-26T20:34:29.135Z,78.54
2017-11-26T20:36:55.528Z,78.79
2017-11-26T20:39:21.890Z,78.34
2017-11-26T20:41:48.290Z,78.16
2017-11-26T20:44:14.634Z,77.99
2017-11-26T20:46:41.003Z,79.01
2017-11-26T20:49:07.399Z,78.73
2017-11-26T20:51:34.166Z,76.74
2017-11-26T20:54:00.881Z,76.26
2017-11-26T20:56:27.314Z,79.19
2017-11-26T20:58:53.665Z,79.54
2017-11-26T21:01:20.062Z,79.68
2017-11-26T21:03:46.610Z,79.71
2017-11-26T21:06:12.989Z,79.11
2017-11-26T21:08:39.345Z,80.53
2017-11-26T21:11:05.778Z,80.68
2017-11-26T21:13:32.125Z,80.07
2017-11-26T21:15:59.465Z,79.95
2017-11-26T21:18:25.897Z,79.36
2017-11-26T21:20:52.306Z,78.69
2017-11-26T21:23:18.704Z,79.20
2017-11-26T21:25:45.095Z,78.86
2017-11-26T21:28:11.443Z,79.25
2017-11-26T21:30:37.786Z,79.71
2017-11-26T21:33:04.170Z,79.71
2017-11-26T21:35:30.523Z,78.19
2017-11-26T21:37:56.908Z,79.05
2017-11-26T21:40:23.313Z,77.03
2017-11-26T21:42:49.669Z,77.39
2017-11-26T21:45:16.058Z,78.24
2017-11-26T21:47:42.442Z,78.10
2017-11-26T21:50:08.794Z,78.90
2017-11-26T21:52:35.214Z,79.07
2017-11-26T21:55:01.758Z,79.41
2017-11-26T21:57:28.218Z,79.49
2017-11-26T21:59:54.582Z,79.12
2017-11-26T22:02:21.010Z,79.50
2017-11-26T22:04:47.435Z,78.92
2017-11-26T22:07:13.793Z,79.38
2017-11-26T22:09:40.197Z,79.54
2017-11-26T22:12:06.564Z,79.64
2017-11-26T22:14:32.917Z,79.85
2017-11-26T22:16:59.326Z,79.64
2017-11-26T22:19:25.725Z,80.24
2017-11-26T22:21:52.113Z,79.98
2017-11-26T22:24:18.521Z,79.94
2017-11-26T22:26:44.885Z,80.19
2017-11-26T22:29:11.257Z,79.96
2017-11-26T22:31:37.645Z,80.23
2017-11-26T22:34:03.994Z,80.33
2017-11-26T22:36:30.355Z,80.40
2017-11-26T22:38:56.866Z,79.41
2017-11-26T22:41:23.222Z,79.40
2017-11-26T22:43:49.579Z,78.58
2017-11-26T22:46:16.022Z,78.91
2017-11-26T22:48:42.368Z,78.71
2017-11-26T22:51:08.725Z,78.47
2017-11-26T22:53:35.086Z,79.04
2017-11-26T22:56:01.467Z,78.85
2017-11-26T22:58:27.845Z,78.41
2017-11-26T23:00:54.297Z,78.15
2017-11-26T23:03:20.790Z,78.01
2017-11-26T23:05:47.142Z,77.16
2017-11-26T23:08:13.556Z,77.71
2017-11-26T23:10:39.917Z,78.08
2017-11-26T23:13:06.293Z,79.18
2017-11-26T23:15:32.674Z,79.47
2017-11-26T23:17:59.017Z,79.66
2017-11-26T23:20:25.412Z,79.14
2017-11-26T23:22:51.813Z,79.00
2017-11-26T23:25:18.293Z,79.04
2017-11-26T23:27:44.682Z,80.18
2017-11-26T23:30:11.155Z,80.44
2017-11-26T23:32:37.535Z,80.40
2017-11-26T23:35:03.890Z,80.16
2017-11-26T23:37:30.273Z,79.92
2017-11-26T23:39:56.633Z,79.92
2017-11-26T23:42:23.009Z,79.62
2017-11-26T23:44:49.390Z,80.05
2017-11-26T23:47:15.744Z,80.11
2017-11-26T23:49:42.102Z,79.73
2017-11-26T23:52:08.501Z,79.46
2017-11-26T23:54:34.881Z,79.36
2017-11-26T23:57:01.242Z,79.13
2017-11-26T23:59:27.733Z,79.42
